Time;durP1;ratioP1;P1;durP2;ratioP2;P2;SDS_P1;SDS_P2;PMS_P1;PMS_P2;Temp;Humidity;BMP_temperature;BMP_pressure;BME280_temperature;BME280_humidity;BME280_pressure;Samples;Min_cycle;Max_cycle;Signal;HPM_P1;HPM_P2
2023/01/30 00:02:18;;;;;;;23.27;13.32;;;1.90;99.90;;;;;;5024649;28;20071;-75
2023/01/30 00:04:45;;;;;;;26.48;15.65;;;1.80;99.90;;;;;;5049729;28;20476;-76
2023/01/30 00:07:14;;;;;;;24.23;13.60;;;1.90;99.90;;;;;;5051929;28;20065;-76
2023/01/30 00:09:41;;;;;;;;;;;1.90;99.90;;;;;;5064778;28;20045;-76
2023/01/30 00:12:07;;;;;;;26.35;14.77;;;2.00;99.90;;;;;;5087163;28;19909;-76
2023/01/30 00:14:32;;;;;;;27.48;14.75;;;2.00;99.90;;;;;;5074369;28;20037;-75
2023/01/30 00:16:58;;;;;;;24.52;13.18;;;2.00;99.90;;;;;;5080893;28;20349;-75
2023/01/30 00:19:25;;;;;;;24.05;12.55;;;2.00;99.90;;;;;;5033152;28;20075;-75
2023/01/30 00:21:51;;;;;;;26.90;14.88;;;2.10;99.90;;;;;;5053355;28;20052;-76
2023/01/30 00:24:17;;;;;;;26.02;14.57;;;2.00;99.90;;;;;;5039330;28;20124;-76
2023/01/30 00:26:43;;;;;;;26.55;14.45;;;2.10;99.90;;;;;;5014073;28;20056;-76
2023/01/30 00:29:08;;;;;;;25.67;14.52;;;2.10;99.90;;;;;;5054197;28;20626;-76
2023/01/30 00:31:36;;;;;;;24.92;15.05;;;2.10;99.90;;;;;;5032651;28;20079;-76
2023/01/30 00:34:02;;;;;;;25.65;13.68;;;2.20;99.90;;;;;;5026606;28;20044;-76
2023/01/30 00:36:27;;;;;;;26.20;13.80;;;2.40;99.90;;;;;;5017206;28;20681;-76
2023/01/30 00:38:57;;;;;;;22.13;12.65;;;2.30;99.90;;;;;;5032477;28;20124;-76
2023/01/30 00:47:03;;;;;;;24.25;13.65;;;2.30;99.90;;;;;;5083986;28;20048;-75
2023/01/30 00:47:07;;;;;;;26.67;16.42;;;2.40;99.90;;;;;;5053078;28;20079;-75
2023/01/30 00:49:35;;;;;;;24.50;13.18;;;2.50;99.90;;;;;;5059692;28;20045;-76
2023/01/30 00:52:01;;;;;;;22.58;12.45;;;2.50;99.90;;;;;;5056547;28;20132;-77
2023/01/30 00:54:26;;;;;;;21.20;12.20;;;2.60;99.90;;;;;;5051756;28;20137;-76
2023/01/30 00:56:52;;;;;;;26.38;14.68;;;2.60;99.90;;;;;;5063673;28;20056;-75
2023/01/30 00:59:18;;;;;;;25.67;14.05;;;2.60;99.90;;;;;;5062333;28;20139;-76
2023/01/30 01:01:43;;;;;;;24.38;14.13;;;2.70;99.90;;;;;;5065070;28;20048;-76
2023/01/30 01:04:13;;;;;;;26.52;14.05;;;2.70;99.90;;;;;;5048588;28;20064;-77
2023/01/30 01:06:38;;;;;;;26.85;14.05;;;2.70;99.90;;;;;;5068255;28;20052;-76
2023/01/30 01:09:05;;;;;;;26.63;13.63;;;2.70;99.90;;;;;;5055372;28;20472;-76
2023/01/30 01:11:30;;;;;;;26.83;13.77;;;2.60;99.90;;;;;;5036713;28;20045;-76
2023/01/30 01:13:58;;;;;;;24.92;13.95;;;2.60;99.90;;;;;;5049028;28;20118;-76
2023/01/30 01:16:24;;;;;;;24.88;13.20;;;2.60;99.90;;;;;;5056621;28;20073;-76
2023/01/30 01:18:50;;;;;;;24.55;13.35;;;2.60;99.90;;;;;;5061209;28;20107;-76
2023/01/30 01:21:17;;;;;;;26.15;14.27;;;2.60;99.90;;;;;;5063194;28;20057;-76
2023/01/30 01:23:47;;;;;;;25.00;13.88;;;2.50;99.90;;;;;;5048932;28;20048;-76
2023/01/30 01:26:13;;;;;;;28.10;14.38;;;2.50;99.90;;;;;;5075753;28;20124;-76
2023/01/30 01:28:39;;;;;;;25.65;12.95;;;2.60;99.90;;;;;;5046532;28;20112;-76
2023/01/30 01:31:09;;;;;;;25.42;14.52;;;2.60;99.90;;;;;;5072410;28;20049;-76
2023/01/30 01:33:35;;;;;;;23.73;13.73;;;2.60;99.90;;;;;;5011192;28;20099;-76
2023/01/30 01:36:01;;;;;;;28.95;17.38;;;2.70;99.90;;;;;;5046437;28;20053;-76
2023/01/30 01:38:27;;;;;;;23.50;14.07;;;2.60;99.90;;;;;;5034561;28;20052;-76
2023/01/30 01:41:01;;;;;;;27.05;14.35;;;2.70;99.90;;;;;;5039159;28;20044;-76
2023/01/30 01:43:30;;;;;;;26.52;14.32;;;2.70;99.90;;;;;;5067053;28;20045;-76
2023/01/30 01:46:16;;;;;;;;;;;2.60;99.90;;;;;;5031308;28;20060;-76
2023/01/30 01:48:46;;;;;;;27.48;15.00;;;2.50;99.90;;;;;;5049991;28;20313;-76
2023/01/30 01:51:16;;;;;;;31.05;14.40;;;2.50;99.90;;;;;;5061171;28;20099;-73
2023/01/30 01:53:46;;;;;;;28.67;14.40;;;2.50;99.90;;;;;;5028738;28;20033;-74
2023/01/30 01:56:13;;;;;;;26.20;13.98;;;2.50;99.90;;;;;;5042779;28;20057;-73
2023/01/30 01:58:56;;;;;;;30.40;16.13;;;2.50;99.90;;;;;;5064135;28;20045;-74
2023/01/30 02:01:22;;;;;;;31.42;16.92;;;2.50;99.90;;;;;;5021782;28;20049;-73
2023/01/30 02:03:51;;;;;;;32.72;16.65;;;2.40;99.90;;;;;;5009756;28;20476;-73
2023/01/30 02:06:17;;;;;;;30.25;17.05;;;2.40;99.90;;;;;;5012365;28;20132;-74
2023/01/30 02:08:46;;;;;;;31.80;15.82;;;2.40;99.90;;;;;;5047248;28;20190;-72
2023/01/30 02:11:17;;;;;;;31.00;16.13;;;2.40;99.90;;;;;;5024555;28;20069;-72
2023/01/30 02:13:46;;;;;;;28.90;16.60;;;2.40;99.90;;;;;;5048787;28;20124;-72
2023/01/30 02:16:12;;;;;;;30.95;17.50;;;2.40;99.90;;;;;;5049190;28;20405;-72
2023/01/30 02:18:39;;;;;;;34.97;17.13;;;2.50;99.90;;;;;;5066492;28;20048;-72
2023/01/30 02:21:23;;;;;;;36.90;21.95;;;2.50;99.90;;;;;;5023220;28;20119;-72
2023/01/30 02:24:16;;;;;;;32.42;17.70;;;2.50;99.90;;;;;;5044991;28;20412;-72
2023/01/30 02:26:48;;;;;;;31.70;16.25;;;2.60;99.90;;;;;;5077820;28;20049;-73
2023/01/30 02:29:39;;;;;;;34.80;20.10;;;2.60;99.90;;;;;;5053091;28;20032;-73
2023/01/30 02:32:19;;;;;;;34.40;18.23;;;2.60;99.90;;;;;;5040730;28;20152;-73
2023/01/30 02:34:54;;;;;;;37.08;20.48;;;2.70;99.90;;;;;;5030730;28;20060;-73
2023/01/30 02:37:32;;;;;;;36.13;19.67;;;2.70;99.90;;;;;;5045422;28;20048;-73
2023/01/30 02:40:13;;;;;;;32.83;18.02;;;2.70;99.90;;;;;;5050114;28;20049;-73
2023/01/30 02:42:43;;;;;;;34.78;18.33;;;2.80;99.90;;;;;;5073674;28;20053;-73
2023/01/30 02:45:29;;;;;;;32.17;16.88;;;2.80;99.90;;;;;;5061294;28;20457;-75
2023/01/30 02:47:56;;;;;;;33.65;16.90;;;2.80;99.90;;;;;;5044618;28;20056;-75
2023/01/30 02:50:29;;;;;;;35.05;17.73;;;2.90;99.90;;;;;;5045971;28;20033;-75
2023/01/30 02:52:55;;;;;;;29.77;16.40;;;2.80;99.90;;;;;;5063193;28;20627;-75
2023/01/30 02:55:23;;;;;;;30.23;16.27;;;2.90;99.90;;;;;;5066532;28;20124;-75
2023/01/30 02:57:48;;;;;;;29.70;15.57;;;2.90;99.90;;;;;;5034331;28;20095;-75
2023/01/30 03:00:17;;;;;;;30.75;16.70;;;2.90;99.90;;;;;;5063218;28;20045;-75
2023/01/30 03:03:06;;;;;;;30.40;16.20;;;2.90;99.90;;;;;;5031141;28;20841;-75
2023/01/30 03:06:10;;;;;;;;;;;2.90;99.90;;;;;;5064272;28;20049;-75
2023/01/30 03:08:48;;;;;;;27.40;14.38;;;2.90;99.90;;;;;;5028662;28;20567;-75
2023/01/30 03:11:14;;;;;;;29.05;16.73;;;3.00;99.90;;;;;;5031446;28;20588;-75
2023/01/30 03:13:59;;;;;;;28.17;16.17;;;3.00;99.90;;;;;;5029696;28;20052;-75
2023/01/30 03:16:38;;;;;;;31.23;16.45;;;3.00;99.90;;;;;;5054998;28;20128;-74
2023/01/30 03:19:05;;;;;;;26.42;15.32;;;3.10;99.90;;;;;;5012387;28;20063;-75
2023/01/30 03:21:32;;;;;;;30.30;15.77;;;3.10;99.90;;;;;;5034431;28;20049;-75
2023/01/30 03:23:58;;;;;;;28.58;16.13;;;3.10;99.90;;;;;;5051058;28;20064;-75
2023/01/30 03:26:25;;;;;;;29.25;15.65;;;3.20;99.90;;;;;;5059792;28;20068;-75
2023/01/30 03:28:51;;;;;;;29.75;14.52;;;3.20;99.90;;;;;;5035629;28;20052;-75
2023/01/30 03:31:17;;;;;;;28.15;14.52;;;3.30;99.90;;;;;;5042604;28;20056;-76
2023/01/30 03:33:43;;;;;;;26.70;14.52;;;3.30;99.90;;;;;;5047507;28;20041;-75
2023/01/30 03:36:09;;;;;;;29.63;16.95;;;3.30;99.90;;;;;;5063567;28;20052;-74
2023/01/30 03:38:35;;;;;;;27.23;14.68;;;3.20;99.90;;;;;;5045876;28;20051;-75
2023/01/30 03:41:01;;;;;;;29.80;19.45;;;3.20;99.90;;;;;;5045444;28;20044;-75
2023/01/30 03:43:27;;;;;;;27.02;14.95;;;3.20;99.90;;;;;;5050311;28;20048;-74
2023/01/30 03:45:54;;;;;;;25.88;13.52;;;3.30;99.90;;;;;;5039561;28;20533;-73
2023/01/30 03:48:19;;;;;;;24.60;13.75;;;3.30;99.90;;;;;;5055483;28;20126;-74
2023/01/30 03:50:46;;;;;;;25.80;16.33;;;3.30;99.90;;;;;;5064173;28;20474;-73
2023/01/30 03:53:12;;;;;;;26.77;14.57;;;3.30;99.90;;;;;;5056591;28;20102;-76
2023/01/30 03:55:44;;;;;;;26.95;14.93;;;3.30;99.90;;;;;;5035109;28;20052;-76
2023/01/30 03:58:10;;;;;;;26.85;14.45;;;3.30;99.90;;;;;;5042745;28;20084;-76
2023/01/30 04:00:35;;;;;;;29.00;15.73;;;3.40;99.90;;;;;;5069194;28;20081;-76
2023/01/30 04:03:02;;;;;;;28.00;16.25;;;3.50;99.90;;;;;;5050173;28;20045;-75
2023/01/30 04:05:28;;;;;;;30.80;16.98;;;3.60;99.90;;;;;;5056478;28;20431;-76
2023/01/30 04:07:57;;;;;;;29.27;16.33;;;3.80;99.90;;;;;;5025757;28;20049;-75
2023/01/30 04:10:23;;;;;;;30.25;16.30;;;3.90;99.90;;;;;;5031085;28;20389;-76
2023/01/30 04:12:49;;;;;;;36.47;17.95;;;4.00;99.90;;;;;;5061702;28;20661;-76
2023/01/30 04:15:15;;;;;;;35.10;17.65;;;4.00;99.90;;;;;;5009496;28;20064;-75
2023/01/30 04:17:42;;;;;;;32.28;17.10;;;4.00;99.90;;;;;;5043573;28;20063;-76
2023/01/30 04:20:09;;;;;;;29.75;16.92;;;4.00;99.90;;;;;;5044091;28;20045;-75
2023/01/30 04:22:34;;;;;;;29.58;17.15;;;4.00;99.90;;;;;;5065555;28;20041;-76
2023/01/30 04:25:01;;;;;;;33.78;17.27;;;4.00;99.90;;;;;;5009800;28;20052;-76
2023/01/30 04:27:27;;;;;;;36.25;17.70;;;4.00;99.90;;;;;;5016357;28;20457;-75
2023/01/30 04:29:53;;;;;;;36.13;20.85;;;4.00;99.90;;;;;;5017921;28;20033;-75
2023/01/30 04:32:18;;;;;;;40.53;21.55;;;3.90;99.90;;;;;;5056805;28;20076;-75
2023/01/30 04:34:44;;;;;;;35.63;18.10;;;3.80;99.90;;;;;;5028195;28;20038;-75
2023/01/30 04:37:11;;;;;;;36.35;18.17;;;3.70;99.90;;;;;;5038378;28;20064;-75
2023/01/30 04:39:36;;;;;;;38.25;19.13;;;3.70;99.90;;;;;;5061405;28;20041;-75
2023/01/30 04:42:02;;;;;;;36.58;18.75;;;3.70;99.90;;;;;;5028784;28;20036;-76
2023/01/30 04:44:28;;;;;;;36.50;17.63;;;3.60;99.90;;;;;;5062304;28;20073;-75
2023/01/30 04:46:54;;;;;;;37.47;18.83;;;3.60;99.90;;;;;;5041128;28;20064;-75
2023/01/30 04:49:19;;;;;;;39.08;19.70;;;3.50;99.90;;;;;;5020402;28;20045;-76
2023/01/30 04:51:45;;;;;;;39.83;19.92;;;3.50;99.90;;;;;;5020264;28;20473;-76
2023/01/30 04:54:12;;;;;;;40.03;19.60;;;3.40;99.90;;;;;;5019953;28;20087;-75
2023/01/30 04:56:38;;;;;;;43.47;22.23;;;3.50;99.90;;;;;;5035973;28;20060;-75
2023/01/30 04:59:03;;;;;;;40.30;20.52;;;3.50;99.90;;;;;;5069238;28;20076;-75
2023/01/30 05:01:34;;;;;;;38.53;20.70;;;3.50;99.90;;;;;;5037029;28;20046;-75
2023/01/30 05:04:00;;;;;;;40.90;20.45;;;3.60;99.90;;;;;;5036426;28;20045;-75
2023/01/30 05:06:25;;;;;;;38.88;18.63;;;3.60;99.90;;;;;;5047606;28;20064;-75
2023/01/30 05:08:52;;;;;;;42.72;21.63;;;3.70;99.90;;;;;;5061479;28;20128;-75
2023/01/30 05:11:18;;;;;;;42.15;20.92;;;3.70;99.90;;;;;;5038038;28;20464;-76
2023/01/30 05:13:44;;;;;;;40.35;19.50;;;3.80;99.90;;;;;;5046111;28;20056;-76
2023/01/30 05:16:11;;;;;;;37.00;21.83;;;3.80;99.90;;;;;;5074263;28;20041;-75
2023/01/30 05:18:36;;;;;;;45.33;24.05;;;3.90;99.90;;;;;;5042956;28;20040;-75
2023/01/30 05:21:07;;;;;;;33.60;17.50;;;4.00;99.90;;;;;;5074631;28;20041;-75
2023/01/30 05:23:33;;;;;;;37.22;19.63;;;4.00;99.90;;;;;;5036851;28;20071;-76
2023/01/30 05:26:00;;;;;;;30.17;16.10;;;4.00;99.90;;;;;;5058182;28;20462;-75
2023/01/30 05:28:26;;;;;;;30.60;16.13;;;4.10;99.90;;;;;;5033097;28;20044;-76
2023/01/30 05:30:52;;;;;;;26.13;14.70;;;4.10;99.90;;;;;;5046961;28;20136;-75
2023/01/30 05:33:18;;;;;;;26.00;15.23;;;4.20;99.90;;;;;;5047519;28;20045;-75
2023/01/30 05:35:47;;;;;;;30.45;17.45;;;4.20;99.90;;;;;;5054292;28;20393;-75
2023/01/30 05:38:13;;;;;;;29.63;17.55;;;4.20;99.90;;;;;;5041879;28;20048;-76
2023/01/30 05:40:39;;;;;;;26.30;14.32;;;4.20;99.90;;;;;;5062355;28;20056;-75
2023/01/30 05:43:05;;;;;;;28.25;15.63;;;4.30;99.90;;;;;;5065813;28;20044;-76
2023/01/30 05:45:30;;;;;;;25.83;13.70;;;4.30;99.90;;;;;;5047464;28;20045;-76
2023/01/30 05:47:56;;;;;;;20.50;13.30;;;4.30;99.90;;;;;;5022062;28;20045;-75
2023/01/30 05:50:22;;;;;;;21.15;12.70;;;4.30;99.90;;;;;;5060750;28;20098;-75
2023/01/30 05:52:48;;;;;;;21.92;12.88;;;4.40;99.90;;;;;;5019078;28;20037;-76
2023/01/30 05:55:14;;;;;;;20.55;12.63;;;4.40;99.90;;;;;;5036070;28;20079;-75
2023/01/30 05:57:40;;;;;;;20.48;11.80;;;4.50;99.90;;;;;;5059865;28;20053;-75
2023/01/30 06:00:06;;;;;;;18.05;11.13;;;4.50;99.90;;;;;;5032236;28;20064;-76
2023/01/30 06:02:32;;;;;;;20.33;12.25;;;4.50;99.90;;;;;;5082172;28;20160;-76
2023/01/30 06:04:58;;;;;;;16.80;10.60;;;4.50;99.90;;;;;;5088184;28;20476;-75
2023/01/30 06:07:23;;;;;;;20.23;12.05;;;4.60;99.90;;;;;;5068404;28;20037;-76
2023/01/30 06:09:49;;;;;;;17.42;10.75;;;4.60;99.90;;;;;;5048162;28;20102;-75
2023/01/30 06:12:15;;;;;;;19.55;11.18;;;4.60;99.90;;;;;;5038309;28;20098;-75
2023/01/30 06:14:41;;;;;;;17.40;11.07;;;4.70;99.90;;;;;;5035232;28;20131;-75
2023/01/30 06:17:06;;;;;;;17.55;10.95;;;4.60;99.90;;;;;;5033308;28;20478;-75
2023/01/30 06:19:33;;;;;;;18.35;12.60;;;4.70;99.90;;;;;;5051430;28;20041;-75
2023/01/30 06:21:58;;;;;;;16.45;10.25;;;4.80;99.90;;;;;;5030772;28;20462;-75
2023/01/30 06:24:24;;;;;;;17.15;10.82;;;4.80;99.90;;;;;;5035932;28;20052;-75
2023/01/30 06:26:50;;;;;;;18.27;10.45;;;4.80;99.90;;;;;;5033294;28;20056;-75
2023/01/30 06:29:17;;;;;;;13.40;9.18;;;4.80;99.90;;;;;;5046325;28;20045;-75
2023/01/30 06:31:44;;;;;;;15.10;9.38;;;4.90;99.90;;;;;;5063201;28;20060;-75
2023/01/30 06:34:10;;;;;;;15.90;10.25;;;4.90;99.90;;;;;;5056689;28;20056;-75
2023/01/30 06:36:36;;;;;;;14.23;8.88;;;4.90;99.90;;;;;;5043315;28;20049;-75
2023/01/30 06:39:02;;;;;;;13.27;8.38;;;4.90;99.90;;;;;;5071297;28;20063;-75
2023/01/30 06:41:28;;;;;;;11.43;7.22;;;4.90;99.90;;;;;;5052141;28;20041;-75
2023/01/30 06:43:54;;;;;;;14.90;7.95;;;4.90;99.90;;;;;;5039942;28;20059;-75
2023/01/30 06:46:20;;;;;;;13.10;8.75;;;4.90;99.90;;;;;;5032106;28;20049;-75
2023/01/30 06:48:46;;;;;;;13.40;8.50;;;4.90;99.90;;;;;;5035067;28;20045;-75
2023/01/30 06:51:12;;;;;;;11.77;7.68;;;4.90;99.90;;;;;;5038292;28;20041;-75
2023/01/30 06:53:39;;;;;;;11.23;7.50;;;5.00;99.90;;;;;;5034768;28;20042;-75
2023/01/30 06:56:05;;;;;;;16.38;7.68;;;4.90;99.90;;;;;;5054112;28;20073;-75
2023/01/30 06:58:33;;;;;;;12.38;7.43;;;4.90;99.90;;;;;;5018555;28;20047;-75
2023/01/30 07:01:00;;;;;;;9.77;5.95;;;4.90;99.90;;;;;;5002757;28;20048;-76
2023/01/30 07:03:27;;;;;;;8.80;5.63;;;5.00;99.90;;;;;;5070060;28;20051;-75
2023/01/30 07:05:53;;;;;;;9.77;5.22;;;4.90;99.90;;;;;;5066654;28;20040;-76
2023/01/30 07:08:19;;;;;;;10.73;5.47;;;5.00;99.90;;;;;;5045945;28;20106;-75
2023/01/30 07:10:45;;;;;;;9.60;6.07;;;5.00;99.90;;;;;;5003991;28;20215;-75
2023/01/30 07:13:12;;;;;;;9.80;4.90;;;5.00;99.90;;;;;;5053420;28;20052;-76
2023/01/30 07:15:38;;;;;;;8.25;5.03;;;5.10;99.90;;;;;;5062898;28;20045;-75
2023/01/30 07:18:04;;;;;;;10.10;5.50;;;5.00;99.90;;;;;;5043637;28;20413;-75
2023/01/30 07:20:30;;;;;;;9.32;5.30;;;4.90;99.90;;;;;;5031826;28;20072;-75
2023/01/30 07:22:56;;;;;;;9.02;4.88;;;4.90;99.90;;;;;;5045140;28;20064;-76
2023/01/30 07:25:22;;;;;;;12.93;5.78;;;5.00;99.90;;;;;;5043373;28;20052;-75
2023/01/30 07:27:56;;;;;;;8.95;5.43;;;5.00;99.90;;;;;;5041550;28;20481;-75
2023/01/30 07:30:23;;;;;;;9.68;5.38;;;5.00;99.90;;;;;;5058912;28;20041;-75
2023/01/30 07:32:53;;;;;;;8.75;4.97;;;5.10;99.90;;;;;;5047151;28;20388;-75
2023/01/30 07:35:20;;;;;;;12.50;5.97;;;5.00;99.90;;;;;;5058643;28;20040;-76
2023/01/30 07:37:46;;;;;;;11.90;5.97;;;5.10;99.90;;;;;;5034471;28;20049;-76
2023/01/30 07:40:13;;;;;;;11.40;6.45;;;5.00;99.90;;;;;;5034142;28;20036;-75
2023/01/30 07:42:39;;;;;;;14.52;7.00;;;5.00;99.90;;;;;;5043396;28;20132;-75
2023/01/30 07:45:05;;;;;;;13.77;6.50;;;4.90;99.90;;;;;;5051156;28;20119;-76
2023/01/30 07:47:31;;;;;;;11.75;5.57;;;5.00;99.90;;;;;;5044489;28;20072;-77
2023/01/30 07:49:58;;;;;;;19.00;6.25;;;5.10;99.90;;;;;;5067749;28;20108;-76
2023/01/30 07:52:23;;;;;;;9.68;5.05;;;5.10;99.90;;;;;;5045174;28;20045;-76
2023/01/30 07:54:49;;;;;;;13.18;5.18;;;5.20;99.90;;;;;;5058408;28;20102;-75
2023/01/30 07:57:15;;;;;;;11.65;4.57;;;5.20;99.90;;;;;;5045477;28;20045;-76
2023/01/30 07:59:41;;;;;;;13.63;4.57;;;5.20;99.90;;;;;;5064898;28;20516;-76
2023/01/30 08:02:10;;;;;;;17.15;4.20;;;5.30;99.90;;;;;;5084525;28;20041;-76
2023/01/30 08:04:37;;;;;;;17.98;4.00;;;5.30;99.90;;;;;;5053027;28;20178;-76
2023/01/30 08:07:03;;;;;;;12.23;3.53;;;5.40;99.90;;;;;;5056411;28;20080;-75
2023/01/30 08:09:29;;;;;;;12.93;3.53;;;5.40;99.90;;;;;;5036584;28;20047;-75
2023/01/30 08:11:55;;;;;;;10.30;2.75;;;5.40;99.90;;;;;;5044898;28;20038;-74
2023/01/30 08:14:22;;;;;;;19.50;4.03;;;5.40;99.90;;;;;;5042446;28;20049;-74
2023/01/30 08:16:47;;;;;;;15.00;3.70;;;5.40;99.90;;;;;;5011432;28;20048;-73
2023/01/30 08:19:13;;;;;;;13.45;3.00;;;5.50;99.90;;;;;;5049366;28;20041;-73
2023/01/30 08:21:39;;;;;;;18.42;3.90;;;5.60;99.90;;;;;;4998808;28;20049;-73
2023/01/30 08:24:05;;;;;;;15.25;3.50;;;5.60;99.90;;;;;;5049409;28;20183;-72
2023/01/30 08:26:31;;;;;;;16.15;3.47;;;5.60;99.90;;;;;;5077448;28;20368;-73
2023/01/30 08:28:57;;;;;;;13.65;3.08;;;5.60;99.90;;;;;;5044862;28;20119;-73
2023/01/30 08:31:22;;;;;;;12.90;3.30;;;5.60;99.90;;;;;;5037388;28;20122;-74
2023/01/30 08:33:48;;;;;;;9.55;3.05;;;5.70;99.90;;;;;;5044347;28;20128;-73
2023/01/30 08:36:14;;;;;;;17.83;3.72;;;5.80;99.90;;;;;;5042037;28;20469;-74
2023/01/30 08:38:39;;;;;;;19.88;3.63;;;5.70;99.90;;;;;;5064465;28;20570;-74
2023/01/30 08:41:07;;;;;;;16.38;3.55;;;5.70;99.90;;;;;;5056543;28;20045;-73
2023/01/30 08:43:33;;;;;;;12.95;3.55;;;5.70;99.90;;;;;;5034240;28;20102;-72
2023/01/30 08:46:01;;;;;;;21.38;3.55;;;5.80;99.90;;;;;;5075019;28;20051;-76
2023/01/30 08:48:27;;;;;;;23.80;3.88;;;5.70;99.90;;;;;;5038950;28;20065;-75
2023/01/30 08:50:53;;;;;;;15.98;2.53;;;5.70;99.90;;;;;;5082396;28;20041;-75
2023/01/30 08:53:19;;;;;;;16.33;2.60;;;5.70;99.90;;;;;;5073674;28;20037;-75
2023/01/30 08:55:45;;;;;;;10.27;2.65;;;5.70;99.90;;;;;;5053770;28;20427;-76
2023/01/30 08:58:11;;;;;;;18.65;3.45;;;5.70;99.90;;;;;;5054512;28;20051;-76
2023/01/30 09:00:38;;;;;;;15.32;2.90;;;5.70;99.90;;;;;;5077577;28;20475;-75
2023/01/30 09:03:04;;;;;;;14.50;2.90;;;5.80;99.90;;;;;;5055132;28;20059;-76
2023/01/30 09:05:30;;;;;;;11.48;2.60;;;5.70;99.90;;;;;;5038980;28;20045;-75
2023/01/30 09:07:56;;;;;;;24.52;4.05;;;5.80;99.90;;;;;;5053165;28;20045;-76
2023/01/30 09:10:23;;;;;;;20.58;3.30;;;5.80;99.90;;;;;;5029904;28;20068;-75
2023/01/30 09:12:51;;;;;;;18.40;4.03;;;5.90;99.90;;;;;;5052122;28;20120;-75
2023/01/30 09:15:17;;;;;;;15.93;3.78;;;5.80;99.90;;;;;;5061282;28;20057;-75
2023/01/30 09:17:43;;;;;;;18.85;3.22;;;5.90;99.90;;;;;;5021550;28;20424;-74
2023/01/30 09:20:10;;;;;;;18.17;3.20;;;5.90;99.90;;;;;;4992263;28;20383;-75
2023/01/30 09:22:36;;;;;;;10.27;2.70;;;5.90;99.90;;;;;;5062533;28;20474;-73
2023/01/30 09:25:02;;;;;;;18.55;3.80;;;6.00;99.90;;;;;;5059691;28;20378;-75
2023/01/30 09:27:27;;;;;;;16.40;2.92;;;6.10;99.90;;;;;;5034729;28;20046;-74
2023/01/30 09:29:53;;;;;;;19.70;3.45;;;6.10;99.90;;;;;;5032244;28;20098;-74
2023/01/30 09:32:19;;;;;;;13.57;2.95;;;6.20;99.90;;;;;;5033176;28;20061;-74
2023/01/30 09:34:45;;;;;;;25.30;3.10;;;6.20;99.90;;;;;;5040222;28;20162;-75
2023/01/30 09:37:10;;;;;;;22.08;3.35;;;6.10;99.90;;;;;;5021901;28;20123;-75
2023/01/30 09:39:36;;;;;;;16.92;3.03;;;6.10;99.90;;;;;;5015609;28;20037;-75
2023/01/30 09:42:05;;;;;;;17.63;4.13;;;5.90;99.90;;;;;;5056774;28;20369;-75
2023/01/30 09:44:58;;;;;;;20.27;3.13;;;5.80;99.90;;;;;;5048934;28;20052;-75
2023/01/30 09:47:27;;;;;;;18.48;3.30;;;5.90;99.90;;;;;;5069546;28;20051;-75
2023/01/30 09:49:56;;;;;;;19.20;3.83;;;5.90;99.90;;;;;;5047689;28;20071;-75
2023/01/30 09:52:40;;;;;;;15.50;2.47;;;6.00;99.90;;;;;;5036265;28;20132;-75
2023/01/30 09:55:16;;;;;;;20.35;3.08;;;6.00;99.90;;;;;;5076863;28;20316;-75
2023/01/30 09:57:43;;;;;;;20.25;3.60;;;6.00;99.90;;;;;;5042703;28;20787;-75
2023/01/30 10:00:35;;;;;;;13.50;2.85;;;6.00;99.90;;;;;;5048742;28;20055;-75
2023/01/30 10:03:15;;;;;;;19.58;2.65;;;6.10;99.90;;;;;;5047713;28;20052;-75
2023/01/30 10:05:48;;;;;;;19.02;2.70;;;6.20;99.90;;;;;;5005528;28;20045;-74
2023/01/30 10:08:38;;;;;;;21.40;3.25;;;6.20;99.90;;;;;;5055566;28;20470;-75
2023/01/30 10:11:06;;;;;;;15.95;3.17;;;6.30;99.90;;;;;;5064141;28;20040;-75
2023/01/30 10:13:32;;;;;;;;;;;6.30;99.90;;;;;;5063829;28;20761;-75
2023/01/30 10:16:23;;;;;;;20.95;3.28;;;6.30;99.90;;;;;;5045983;28;19999;-74
2023/01/30 10:19:11;;;;;;;17.13;3.42;;;6.30;99.90;;;;;;5051384;28;20075;-73
2023/01/30 10:21:46;;;;;;;;;;;6.30;99.90;;;;;;5021914;28;20045;-72
2023/01/30 10:24:55;;;;;;;21.77;4.20;;;6.30;99.90;;;;;;5025837;28;19916;-73
2023/01/30 10:27:20;;;;;;;23.73;3.75;;;6.50;99.90;;;;;;4978381;28;20129;-72
2023/01/30 10:29:55;;;;;;;19.63;4.13;;;6.50;99.90;;;;;;4976520;28;20149;-74
2023/01/30 10:32:40;;;;;;;19.58;3.22;;;6.40;99.90;;;;;;5019102;28;20072;-73
2023/01/30 10:35:13;;;;;;;20.35;3.03;;;6.60;99.90;;;;;;5043835;28;20040;-73
2023/01/30 10:38:04;;;;;;;11.43;2.80;;;6.80;99.90;;;;;;5024936;28;20541;-73
2023/01/30 10:40:41;;;;;;;19.05;3.63;;;6.60;99.90;;;;;;5058227;28;20470;-73
2023/01/30 10:43:28;;;;;;;21.05;4.55;;;6.50;99.90;;;;;;5055092;28;20045;-73
2023/01/30 10:46:03;;;;;;;14.15;2.80;;;6.50;99.90;;;;;;5032008;28;20056;-74
2023/01/30 10:48:47;;;;;;;18.77;3.00;;;6.40;99.90;;;;;;5044638;28;20052;-73
2023/01/30 10:51:35;;;;;;;19.15;2.85;;;6.40;99.90;;;;;;5052603;28;20182;-73
2023/01/30 10:54:27;;;;;;;23.73;3.90;;;6.50;99.90;;;;;;5065915;28;20041;-74
2023/01/30 10:57:46;;;;;;;15.40;3.03;;;6.60;99.90;;;;;;5024369;28;20056;-74
2023/01/30 11:00:23;;;;;;;17.38;3.58;;;6.50;99.90;;;;;;5018314;28;20041;-74
2023/01/30 11:03:08;;;;;;;24.13;3.58;;;6.70;99.90;;;;;;5061589;28;20044;-73
2023/01/30 11:05:41;;;;;;;24.00;3.13;;;6.70;99.90;;;;;;5030730;28;20049;-73
2023/01/30 11:08:21;;;;;;;21.10;3.53;;;6.60;99.90;;;;;;5055450;28;20041;-73
2023/01/30 11:10:47;;;;;;;14.73;2.80;;;6.70;99.90;;;;;;5051161;28;20069;-75
2023/01/30 11:13:29;;;;;;;16.48;2.75;;;6.80;99.90;;;;;;5055533;28;20041;-73
2023/01/30 11:15:57;;;;;;;18.48;3.60;;;9.00;99.90;;;;;;5080974;28;20212;-74
2023/01/30 11:18:25;;;;;;;19.52;4.53;;;9.70;99.90;;;;;;5050524;28;20049;-74
2023/01/30 11:21:03;;;;;;;20.27;3.72;;;9.00;99.90;;;;;;5031096;28;20366;-74
2023/01/30 11:23:39;;;;;;;25.33;3.25;;;9.70;99.90;;;;;;5017208;28;20692;-74
2023/01/30 11:26:05;;;;;;;20.75;3.55;;;8.70;99.90;;;;;;5030251;28;20055;-73
2023/01/30 11:28:39;;;;;;;13.23;3.33;;;8.20;99.90;;;;;;5051119;28;20673;-74
2023/01/30 11:31:52;;;;;;;18.67;3.30;;;7.50;99.90;;;;;;5027840;28;20056;-73
2023/01/30 11:34:22;;;;;;;21.33;3.83;;;7.10;99.90;;;;;;5039149;28;20041;-72
2023/01/30 11:36:48;;;;;;;18.10;2.90;;;6.90;99.90;;;;;;5031690;28;20366;-74
2023/01/30 11:39:16;;;;;;;13.40;2.63;;;6.80;99.90;;;;;;5067244;28;20063;-73
2023/01/30 11:41:54;;;;;;;22.77;3.42;;;6.80;99.90;;;;;;5048637;28;20053;-73
2023/01/30 11:44:33;;;;;;;16.05;2.92;;;6.80;99.90;;;;;;5044362;28;20385;-74
2023/01/30 11:47:11;;;;;;;21.02;3.95;;;6.70;99.90;;;;;;5043318;28;20128;-74
2023/01/30 11:49:40;;;;;;;17.75;2.42;;;6.50;99.90;;;;;;5023857;28;20068;-74
2023/01/30 11:52:05;;;;;;;17.83;3.35;;;6.30;99.90;;;;;;5009850;28;20848;-75
2023/01/30 11:54:40;;;;;;;15.43;2.95;;;6.50;99.90;;;;;;5014831;28;20086;-74
2023/01/30 11:57:14;;;;;;;10.30;2.78;;;6.70;99.90;;;;;;5057314;28;20119;-74
2023/01/30 11:59:56;;;;;;;10.85;2.35;;;6.70;99.90;;;;;;5039497;28;20051;-73
2023/01/30 12:02:39;;;;;;;16.02;3.28;;;6.90;99.90;;;;;;5024847;28;20051;-74
2023/01/30 12:05:41;;;;;;;13.95;2.30;;;6.80;99.90;;;;;;5040095;28;20045;-74
2023/01/30 12:08:22;;;;;;;17.90;3.08;;;6.60;99.90;;;;;;5054270;28;20045;-73
2023/01/30 12:10:57;;;;;;;19.05;2.63;;;6.40;99.90;;;;;;5075136;28;20120;-74
2023/01/30 12:13:44;;;;;;;19.02;2.58;;;6.40;99.90;;;;;;5044835;28;20084;-74
2023/01/30 12:16:31;;;;;;;16.40;3.00;;;6.30;99.90;;;;;;5062296;28;20339;-73
2023/01/30 12:19:05;;;;;;;12.15;2.72;;;6.20;99.90;;;;;;5042557;28;20037;-73
2023/01/30 12:21:39;;;;;;;16.30;2.22;;;6.10;99.90;;;;;;5036765;28;20135;-73
2023/01/30 12:24:31;;;;;;;19.95;3.25;;;6.10;99.90;;;;;;5041942;28;20136;-72
2023/01/30 12:27:00;;;;;;;19.70;3.42;;;6.00;99.90;;;;;;5027518;28;20045;-73
2023/01/30 12:29:32;;;;;;;16.40;3.08;;;5.90;99.90;;;;;;5053316;28;20045;-73
2023/01/30 12:32:04;;;;;;;14.30;2.80;;;5.90;99.90;;;;;;5064048;28;20060;-74
2023/01/30 12:34:30;;;;;;;17.73;2.88;;;6.00;99.90;;;;;;5071604;28;20354;-74
2023/01/30 12:37:00;;;;;;;18.50;3.60;;;6.00;99.90;;;;;;5052480;28;20052;-75
2023/01/30 12:39:54;;;;;;;22.38;3.40;;;6.00;99.90;;;;;;5036846;28;20065;-73
2023/01/30 12:42:29;;;;;;;19.35;3.40;;;5.80;99.90;;;;;;5052960;28;20093;-74
2023/01/30 12:45:05;;;;;;;17.75;2.45;;;5.70;99.90;;;;;;5047676;28;20138;-72
2023/01/30 12:48:08;;;;;;;17.10;3.75;;;5.70;99.90;;;;;;5037442;28;20045;-75
2023/01/30 12:50:41;;;;;;;17.35;2.20;;;5.80;99.90;;;;;;5045515;28;20076;-74
2023/01/30 12:53:27;;;;;;;11.95;2.28;;;6.10;99.90;;;;;;5008620;28;20102;-74
2023/01/30 12:56:30;;;;;;;12.75;5.32;;;6.30;99.90;;;;;;5041875;28;20481;-74
2023/01/30 12:59:24;;;;;;;12.80;5.82;;;7.60;99.90;;;;;;5039696;28;20053;-75
2023/01/30 13:02:17;;;;;;;11.32;5.50;;;8.70;99.90;;;;;;5045398;28;20754;-74
2023/01/30 13:05:08;;;;;;;8.25;2.10;;;8.30;99.90;;;;;;5032159;28;20053;-76